sensor_id;sensor_type;location;lat;lon;timestamp;P1;durP1;ratioP1;P2;durP2;ratioP2
48835;SDS011;62581;47.342;7.908;2023-02-01T00:00:29;12.80;;;8.68;;
48835;SDS011;62581;47.342;7.908;2023-02-01T00:02:58;14.30;;;8.65;;
48835;SDS011;62581;47.342;7.908;2023-02-01T00:05:25;13.60;;;8.55;;
48835;SDS011;62581;47.342;7.908;2023-02-01T00:07:52;15.07;;;8.65;;
48835;SDS011;62581;47.342;7.908;2023-02-01T00:10:19;15.98;;;9.07;;
48835;SDS011;62581;47.342;7.908;2023-02-01T00:12:46;16.67;;;8.82;;
48835;SDS011;62581;47.342;7.908;2023-02-01T00:15:13;17.70;;;9.20;;
48835;SDS011;62581;47.342;7.908;2023-02-01T00:17:41;13.48;;;8.63;;
48835;SDS011;62581;47.342;7.908;2023-02-01T00:20:09;14.95;;;8.50;;
48835;SDS011;62581;47.342;7.908;2023-02-01T00:22:36;16.50;;;9.02;;
48835;SDS011;62581;47.342;7.908;2023-02-01T00:25:04;18.55;;;9.30;;
48835;SDS011;62581;47.342;7.908;2023-02-01T00:27:32;16.70;;;8.95;;
48835;SDS011;62581;47.342;7.908;2023-02-01T00:29:59;16.50;;;8.52;;
48835;SDS011;62581;47.342;7.908;2023-02-01T00:32:26;15.63;;;9.38;;
48835;SDS011;62581;47.342;7.908;2023-02-01T00:34:54;19.20;;;9.20;;
48835;SDS011;62581;47.342;7.908;2023-02-01T00:37:21;15.73;;;9.13;;
48835;SDS011;62581;47.342;7.908;2023-02-01T00:39:48;18.45;;;9.10;;
48835;SDS011;62581;47.342;7.908;2023-02-01T00:42:15;18.42;;;9.48;;
48835;SDS011;62581;47.342;7.908;2023-02-01T00:44:42;15.27;;;9.38;;
48835;SDS011;62581;47.342;7.908;2023-02-01T00:47:09;21.67;;;9.57;;
48835;SDS011;62581;47.342;7.908;2023-02-01T00:49:36;18.73;;;9.63;;
48835;SDS011;62581;47.342;7.908;2023-02-01T00:52:04;16.75;;;10.10;;
48835;SDS011;62581;47.342;7.908;2023-02-01T00:54:32;16.63;;;10.00;;
48835;SDS011;62581;47.342;7.908;2023-02-01T00:57:00;14.70;;;9.05;;
48835;SDS011;62581;47.342;7.908;2023-02-01T00:59:27;22.13;;;10.90;;
48835;SDS011;62581;47.342;7.908;2023-02-01T01:01:54;14.25;;;9.15;;
48835;SDS011;62581;47.342;7.908;2023-02-01T01:04:21;16.55;;;10.05;;
48835;SDS011;62581;47.342;7.908;2023-02-01T01:06:48;19.40;;;10.30;;
48835;SDS011;62581;47.342;7.908;2023-02-01T01:09:17;19.00;;;10.02;;
48835;SDS011;62581;47.342;7.908;2023-02-01T01:11:44;17.55;;;10.38;;
48835;SDS011;62581;47.342;7.908;2023-02-01T01:14:10;15.57;;;9.77;;
48835;SDS011;62581;47.342;7.908;2023-02-01T01:16:37;13.88;;;9.90;;
48835;SDS011;62581;47.342;7.908;2023-02-01T01:19:04;15.63;;;9.57;;
48835;SDS011;62581;47.342;7.908;2023-02-01T01:21:31;17.38;;;10.13;;
48835;SDS011;62581;47.342;7.908;2023-02-01T01:23:59;19.77;;;10.82;;
48835;SDS011;62581;47.342;7.908;2023-02-01T01:26:28;17.58;;;9.55;;
48835;SDS011;62581;47.342;7.908;2023-02-01T01:28:56;15.73;;;9.80;;
48835;SDS011;62581;47.342;7.908;2023-02-01T01:31:24;17.35;;;9.65;;
48835;SDS011;62581;47.342;7.908;2023-02-01T01:33:52;18.42;;;10.30;;
48835;SDS011;62581;47.342;7.908;2023-02-01T01:36:20;18.40;;;10.65;;
48835;SDS011;62581;47.342;7.908;2023-02-01T01:38:48;14.93;;;9.57;;
48835;SDS011;62581;47.342;7.908;2023-02-01T01:41:16;19.13;;;10.13;;
48835;SDS011;62581;47.342;7.908;2023-02-01T01:43:51;18.05;;;10.88;;
48835;SDS011;62581;47.342;7.908;2023-02-01T01:46:21;15.45;;;10.35;;
48835;SDS011;62581;47.342;7.908;2023-02-01T01:48:50;16.00;;;9.70;;
48835;SDS011;62581;47.342;7.908;2023-02-01T01:51:23;16.75;;;9.60;;
48835;SDS011;62581;47.342;7.908;2023-02-01T01:53:54;17.55;;;10.32;;
48835;SDS011;62581;47.342;7.908;2023-02-01T01:56:26;17.83;;;9.48;;
48835;SDS011;62581;47.342;7.908;2023-02-01T01:58:56;18.05;;;10.55;;
48835;SDS011;62581;47.342;7.908;2023-02-01T02:01:24;17.33;;;10.60;;
48835;SDS011;62581;47.342;7.908;2023-02-01T02:03:51;17.65;;;11.25;;
48835;SDS011;62581;47.342;7.908;2023-02-01T02:06:23;19.48;;;10.57;;
48835;SDS011;62581;47.342;7.908;2023-02-01T02:08:59;18.33;;;10.60;;
48835;SDS011;62581;47.342;7.908;2023-02-01T02:11:26;19.98;;;10.40;;
48835;SDS011;62581;47.342;7.908;2023-02-01T02:13:53;18.90;;;10.93;;
48835;SDS011;62581;47.342;7.908;2023-02-01T02:16:30;21.33;;;11.50;;
48835;SDS011;62581;47.342;7.908;2023-02-01T02:19:16;21.15;;;11.05;;
48835;SDS011;62581;47.342;7.908;2023-02-01T02:22:07;19.88;;;11.52;;
48835;SDS011;62581;47.342;7.908;2023-02-01T02:24:54;18.40;;;10.82;;
48835;SDS011;62581;47.342;7.908;2023-02-01T02:27:43;22.27;;;10.98;;
48835;SDS011;62581;47.342;7.908;2023-02-01T02:30:35;19.90;;;10.30;;
48835;SDS011;62581;47.342;7.908;2023-02-01T02:36:26;18.33;;;10.73;;
48835;SDS011;62581;47.342;7.908;2023-02-01T02:39:03;20.15;;;11.63;;
48835;SDS011;62581;47.342;7.908;2023-02-01T02:41:36;19.52;;;10.73;;
48835;SDS011;62581;47.342;7.908;2023-02-01T02:44:31;15.55;;;9.73;;
48835;SDS011;62581;47.342;7.908;2023-02-01T02:47:21;17.20;;;10.05;;
48835;SDS011;62581;47.342;7.908;2023-02-01T02:49:56;16.33;;;10.70;;
48835;SDS011;62581;47.342;7.908;2023-02-01T02:52:48;18.20;;;10.50;;
48835;SDS011;62581;47.342;7.908;2023-02-01T02:55:37;16.15;;;9.98;;
48835;SDS011;62581;47.342;7.908;2023-02-01T02:58:05;24.60;;;12.18;;
48835;SDS011;62581;47.342;7.908;2023-02-01T03:00:51;18.92;;;10.95;;
48835;SDS011;62581;47.342;7.908;2023-02-01T03:03:38;19.65;;;11.07;;
48835;SDS011;62581;47.342;7.908;2023-02-01T03:06:25;18.20;;;11.27;;
48835;SDS011;62581;47.342;7.908;2023-02-01T03:08:53;20.35;;;10.55;;
48835;SDS011;62581;47.342;7.908;2023-02-01T03:11:24;17.38;;;10.13;;
48835;SDS011;62581;47.342;7.908;2023-02-01T03:14:13;20.52;;;10.32;;
48835;SDS011;62581;47.342;7.908;2023-02-01T03:16:43;18.10;;;10.98;;
48835;SDS011;62581;47.342;7.908;2023-02-01T03:19:15;18.90;;;10.30;;
48835;SDS011;62581;47.342;7.908;2023-02-01T03:21:48;17.90;;;10.55;;
48835;SDS011;62581;47.342;7.908;2023-02-01T03:24:18;19.77;;;10.70;;
48835;SDS011;62581;47.342;7.908;2023-02-01T03:26:58;22.17;;;11.38;;
48835;SDS011;62581;47.342;7.908;2023-02-01T03:29:34;17.65;;;11.02;;
48835;SDS011;62581;47.342;7.908;2023-02-01T03:32:06;18.65;;;11.18;;
48835;SDS011;62581;47.342;7.908;2023-02-01T03:34:34;20.70;;;11.52;;
48835;SDS011;62581;47.342;7.908;2023-02-01T03:37:03;23.92;;;11.30;;
48835;SDS011;62581;47.342;7.908;2023-02-01T03:39:35;20.85;;;12.20;;
48835;SDS011;62581;47.342;7.908;2023-02-01T03:42:06;22.10;;;11.90;;
48835;SDS011;62581;47.342;7.908;2023-02-01T03:44:37;18.25;;;11.00;;
48835;SDS011;62581;47.342;7.908;2023-02-01T03:47:10;23.92;;;12.27;;
48835;SDS011;62581;47.342;7.908;2023-02-01T03:49:41;20.83;;;11.88;;
48835;SDS011;62581;47.342;7.908;2023-02-01T03:52:13;20.00;;;11.68;;
48835;SDS011;62581;47.342;7.908;2023-02-01T03:54:44;20.33;;;11.13;;
48835;SDS011;62581;47.342;7.908;2023-02-01T03:57:13;17.60;;;9.98;;
48835;SDS011;62581;47.342;7.908;2023-02-01T03:59:44;19.10;;;10.32;;
48835;SDS011;62581;47.342;7.908;2023-02-01T04:02:11;19.42;;;10.77;;
48835;SDS011;62581;47.342;7.908;2023-02-01T04:04:38;16.33;;;10.20;;
48835;SDS011;62581;47.342;7.908;2023-02-01T04:07:05;18.75;;;10.23;;
48835;SDS011;62581;47.342;7.908;2023-02-01T04:09:34;15.90;;;9.43;;
48835;SDS011;62581;47.342;7.908;2023-02-01T04:12:00;19.73;;;10.05;;
48835;SDS011;62581;47.342;7.908;2023-02-01T04:14:27;17.15;;;9.52;;
48835;SDS011;62581;47.342;7.908;2023-02-01T04:16:54;19.08;;;9.73;;
48835;SDS011;62581;47.342;7.908;2023-02-01T04:19:21;17.92;;;9.57;;
48835;SDS011;62581;47.342;7.908;2023-02-01T04:21:48;14.48;;;9.88;;
48835;SDS011;62581;47.342;7.908;2023-02-01T04:24:15;17.92;;;10.23;;
48835;SDS011;62581;47.342;7.908;2023-02-01T04:26:43;17.17;;;9.68;;
48835;SDS011;62581;47.342;7.908;2023-02-01T04:29:10;19.63;;;9.70;;
48835;SDS011;62581;47.342;7.908;2023-02-01T04:31:38;23.67;;;10.65;;
48835;SDS011;62581;47.342;7.908;2023-02-01T04:34:05;14.73;;;9.38;;
48835;SDS011;62581;47.342;7.908;2023-02-01T04:36:32;16.77;;;9.93;;
48835;SDS011;62581;47.342;7.908;2023-02-01T04:38:59;18.15;;;9.38;;
48835;SDS011;62581;47.342;7.908;2023-02-01T04:41:26;14.20;;;8.38;;
48835;SDS011;62581;47.342;7.908;2023-02-01T04:43:55;15.48;;;9.07;;
48835;SDS011;62581;47.342;7.908;2023-02-01T04:46:22;16.75;;;8.73;;
48835;SDS011;62581;47.342;7.908;2023-02-01T04:48:49;17.00;;;9.15;;
48835;SDS011;62581;47.342;7.908;2023-02-01T04:51:16;15.27;;;9.25;;
48835;SDS011;62581;47.342;7.908;2023-02-01T04:53:43;12.18;;;8.60;;
48835;SDS011;62581;47.342;7.908;2023-02-01T04:56:10;15.18;;;8.93;;
48835;SDS011;62581;47.342;7.908;2023-02-01T04:58:37;15.93;;;8.63;;
48835;SDS011;62581;47.342;7.908;2023-02-01T05:01:06;16.17;;;8.63;;
48835;SDS011;62581;47.342;7.908;2023-02-01T05:03:34;14.55;;;8.50;;
48835;SDS011;62581;47.342;7.908;2023-02-01T05:06:01;15.55;;;8.25;;
48835;SDS011;62581;47.342;7.908;2023-02-01T05:08:30;18.90;;;8.50;;
48835;SDS011;62581;47.342;7.908;2023-02-01T05:10:57;12.80;;;8.43;;
48835;SDS011;62581;47.342;7.908;2023-02-01T05:13:27;16.77;;;9.93;;
48835;SDS011;62581;47.342;7.908;2023-02-01T05:16:13;15.52;;;8.57;;
48835;SDS011;62581;47.342;7.908;2023-02-01T05:21:07;15.63;;;8.18;;
48835;SDS011;62581;47.342;7.908;2023-02-01T05:23:34;15.02;;;9.23;;
48835;SDS011;62581;47.342;7.908;2023-02-01T05:26:22;15.07;;;9.17;;
48835;SDS011;62581;47.342;7.908;2023-02-01T05:28:49;19.50;;;8.90;;
48835;SDS011;62581;47.342;7.908;2023-02-01T05:31:18;16.08;;;9.30;;
48835;SDS011;62581;47.342;7.908;2023-02-01T05:33:45;14.75;;;8.57;;
48835;SDS011;62581;47.342;7.908;2023-02-01T05:36:13;13.37;;;8.97;;
48835;SDS011;62581;47.342;7.908;2023-02-01T05:38:40;16.00;;;8.55;;
48835;SDS011;62581;47.342;7.908;2023-02-01T05:41:07;16.77;;;9.13;;
48835;SDS011;62581;47.342;7.908;2023-02-01T05:43:34;15.98;;;8.65;;
48835;SDS011;62581;47.342;7.908;2023-02-01T05:46:01;17.45;;;10.13;;
48835;SDS011;62581;47.342;7.908;2023-02-01T05:48:29;18.08;;;9.40;;
48835;SDS011;62581;47.342;7.908;2023-02-01T05:50:56;16.27;;;9.23;;
48835;SDS011;62581;47.342;7.908;2023-02-01T05:53:23;15.10;;;9.13;;
48835;SDS011;62581;47.342;7.908;2023-02-01T05:55:50;13.63;;;8.38;;
48835;SDS011;62581;47.342;7.908;2023-02-01T05:58:17;14.05;;;8.43;;
48835;SDS011;62581;47.342;7.908;2023-02-01T06:00:44;15.18;;;8.55;;
48835;SDS011;62581;47.342;7.908;2023-02-01T06:03:11;18.80;;;10.25;;
48835;SDS011;62581;47.342;7.908;2023-02-01T06:05:40;15.57;;;8.93;;
48835;SDS011;62581;47.342;7.908;2023-02-01T06:08:09;16.08;;;8.75;;
48835;SDS011;62581;47.342;7.908;2023-02-01T06:10:36;18.25;;;9.13;;
48835;SDS011;62581;47.342;7.908;2023-02-01T06:13:03;21.15;;;9.48;;
48835;SDS011;62581;47.342;7.908;2023-02-01T06:15:30;14.55;;;8.23;;
48835;SDS011;62581;47.342;7.908;2023-02-01T06:17:57;15.32;;;9.50;;
48835;SDS011;62581;47.342;7.908;2023-02-01T06:20:24;18.85;;;9.98;;
48835;SDS011;62581;47.342;7.908;2023-02-01T06:22:53;17.70;;;9.88;;
48835;SDS011;62581;47.342;7.908;2023-02-01T06:25:19;13.77;;;8.90;;
48835;SDS011;62581;47.342;7.908;2023-02-01T06:27:47;16.50;;;9.45;;
48835;SDS011;62581;47.342;7.908;2023-02-01T06:30:14;18.52;;;9.93;;
48835;SDS011;62581;47.342;7.908;2023-02-01T06:32:41;19.83;;;10.52;;
48835;SDS011;62581;47.342;7.908;2023-02-01T06:35:09;17.77;;;10.23;;
48835;SDS011;62581;47.342;7.908;2023-02-01T06:37:41;16.98;;;9.85;;
48835;SDS011;62581;47.342;7.908;2023-02-01T06:40:10;18.65;;;10.05;;
48835;SDS011;62581;47.342;7.908;2023-02-01T06:42:37;16.00;;;9.48;;
48835;SDS011;62581;47.342;7.908;2023-02-01T06:45:05;19.33;;;10.57;;
48835;SDS011;62581;47.342;7.908;2023-02-01T06:47:32;18.58;;;10.63;;
48835;SDS011;62581;47.342;7.908;2023-02-01T06:49:59;20.85;;;11.48;;
48835;SDS011;62581;47.342;7.908;2023-02-01T06:52:26;20.73;;;11.25;;
48835;SDS011;62581;47.342;7.908;2023-02-01T06:54:53;18.88;;;10.52;;
48835;SDS011;62581;47.342;7.908;2023-02-01T06:57:22;23.35;;;12.45;;
48835;SDS011;62581;47.342;7.908;2023-02-01T06:59:49;25.67;;;13.55;;
48835;SDS011;62581;47.342;7.908;2023-02-01T07:02:16;27.80;;;14.40;;
48835;SDS011;62581;47.342;7.908;2023-02-01T07:04:43;25.50;;;13.80;;
48835;SDS011;62581;47.342;7.908;2023-02-01T07:07:10;33.42;;;16.33;;
48835;SDS011;62581;47.342;7.908;2023-02-01T07:09:37;30.13;;;15.95;;
48835;SDS011;62581;47.342;7.908;2023-02-01T07:12:04;33.65;;;16.52;;
48835;SDS011;62581;47.342;7.908;2023-02-01T07:14:33;23.70;;;13.67;;
48835;SDS011;62581;47.342;7.908;2023-02-01T07:17:00;21.85;;;13.48;;
48835;SDS011;62581;47.342;7.908;2023-02-01T07:19:27;22.88;;;12.38;;
48835;SDS011;62581;47.342;7.908;2023-02-01T07:21:54;21.08;;;12.70;;
48835;SDS011;62581;47.342;7.908;2023-02-01T07:24:21;24.20;;;13.73;;
48835;SDS011;62581;47.342;7.908;2023-02-01T07:26:48;30.40;;;15.18;;
48835;SDS011;62581;47.342;7.908;2023-02-01T07:29:16;30.63;;;15.23;;
48835;SDS011;62581;47.342;7.908;2023-02-01T07:31:44;25.52;;;14.57;;
48835;SDS011;62581;47.342;7.908;2023-02-01T07:34:11;26.67;;;14.73;;
48835;SDS011;62581;47.342;7.908;2023-02-01T07:36:38;29.67;;;14.95;;
48835;SDS011;62581;47.342;7.908;2023-02-01T07:39:05;25.27;;;12.52;;
48835;SDS011;62581;47.342;7.908;2023-02-01T07:41:32;27.48;;;13.45;;
48835;SDS011;62581;47.342;7.908;2023-02-01T07:43:59;26.73;;;13.65;;
48835;SDS011;62581;47.342;7.908;2023-02-01T07:46:26;25.33;;;13.75;;
48835;SDS011;62581;47.342;7.908;2023-02-01T07:48:54;31.23;;;16.42;;
48835;SDS011;62581;47.342;7.908;2023-02-01T07:51:22;26.67;;;14.25;;
48835;SDS011;62581;47.342;7.908;2023-02-01T07:53:48;33.03;;;16.50;;
48835;SDS011;62581;47.342;7.908;2023-02-01T07:56:16;31.63;;;16.52;;
48835;SDS011;62581;47.342;7.908;2023-02-01T07:58:46;26.35;;;14.38;;
48835;SDS011;62581;47.342;7.908;2023-02-01T08:01:14;25.90;;;14.18;;
48835;SDS011;62581;47.342;7.908;2023-02-01T08:03:50;29.08;;;16.20;;
48835;SDS011;62581;47.342;7.908;2023-02-01T08:06:20;29.38;;;16.90;;
48835;SDS011;62581;47.342;7.908;2023-02-01T08:08:50;31.13;;;16.98;;
48835;SDS011;62581;47.342;7.908;2023-02-01T08:11:17;34.25;;;16.98;;
48835;SDS011;62581;47.342;7.908;2023-02-01T08:13:45;32.35;;;17.80;;
48835;SDS011;62581;47.342;7.908;2023-02-01T08:16:13;34.83;;;17.85;;
48835;SDS011;62581;47.342;7.908;2023-02-01T08:18:42;30.50;;;16.55;;
48835;SDS011;62581;47.342;7.908;2023-02-01T08:21:10;27.63;;;15.95;;
48835;SDS011;62581;47.342;7.908;2023-02-01T08:23:40;30.27;;;16.70;;
48835;SDS011;62581;47.342;7.908;2023-02-01T08:26:09;32.10;;;16.17;;
48835;SDS011;62581;47.342;7.908;2023-02-01T08:28:40;28.98;;;15.55;;
48835;SDS011;62581;47.342;7.908;2023-02-01T08:31:09;30.98;;;16.45;;
48835;SDS011;62581;47.342;7.908;2023-02-01T08:33:37;30.65;;;15.95;;
48835;SDS011;62581;47.342;7.908;2023-02-01T08:36:04;27.90;;;14.57;;
48835;SDS011;62581;47.342;7.908;2023-02-01T08:38:34;30.05;;;15.43;;
48835;SDS011;62581;47.342;7.908;2023-02-01T08:41:05;33.60;;;15.63;;
48835;SDS011;62581;47.342;7.908;2023-02-01T08:43:33;30.48;;;16.17;;
48835;SDS011;62581;47.342;7.908;2023-02-01T08:46:01;30.33;;;16.42;;
48835;SDS011;62581;47.342;7.908;2023-02-01T08:48:32;30.08;;;16.00;;
48835;SDS011;62581;47.342;7.908;2023-02-01T08:53:47;27.55;;;14.48;;
48835;SDS011;62581;47.342;7.908;2023-02-01T08:56:27;27.83;;;14.35;;
48835;SDS011;62581;47.342;7.908;2023-02-01T08:58:54;27.75;;;14.65;;
48835;SDS011;62581;47.342;7.908;2023-02-01T09:01:21;26.70;;;14.32;;
48835;SDS011;62581;47.342;7.908;2023-02-01T09:03:48;25.55;;;14.15;;
48835;SDS011;62581;47.342;7.908;2023-02-01T09:06:15;25.48;;;14.10;;
48835;SDS011;62581;47.342;7.908;2023-02-01T09:08:43;22.60;;;13.38;;
48835;SDS011;62581;47.342;7.908;2023-02-01T09:11:13;23.67;;;13.50;;
48835;SDS011;62581;47.342;7.908;2023-02-01T09:13:43;24.70;;;13.10;;
48835;SDS011;62581;47.342;7.908;2023-02-01T09:16:11;23.33;;;13.65;;
48835;SDS011;62581;47.342;7.908;2023-02-01T09:18:38;22.20;;;13.18;;
48835;SDS011;62581;47.342;7.908;2023-02-01T09:21:06;20.40;;;11.88;;
48835;SDS011;62581;47.342;7.908;2023-02-01T09:23:33;22.73;;;12.63;;
48835;SDS011;62581;47.342;7.908;2023-02-01T09:26:01;23.50;;;12.98;;
48835;SDS011;62581;47.342;7.908;2023-02-01T09:28:28;22.00;;;13.50;;
48835;SDS011;62581;47.342;7.908;2023-02-01T09:30:57;22.63;;;13.85;;
48835;SDS011;62581;47.342;7.908;2023-02-01T09:33:27;25.10;;;13.88;;
48835;SDS011;62581;47.342;7.908;2023-02-01T09:35:55;24.25;;;12.40;;
48835;SDS011;62581;47.342;7.908;2023-02-01T09:38:23;24.20;;;12.95;;
48835;SDS011;62581;47.342;7.908;2023-02-01T09:40:52;20.67;;;12.43;;
48835;SDS011;62581;47.342;7.908;2023-02-01T09:43:22;24.05;;;11.25;;
48835;SDS011;62581;47.342;7.908;2023-02-01T09:46:06;23.40;;;13.43;;
48835;SDS011;62581;47.342;7.908;2023-02-01T09:48:44;23.70;;;13.52;;
48835;SDS011;62581;47.342;7.908;2023-02-01T09:51:13;24.27;;;13.50;;
48835;SDS011;62581;47.342;7.908;2023-02-01T09:53:44;21.10;;;13.70;;
48835;SDS011;62581;47.342;7.908;2023-02-01T09:56:18;25.15;;;14.63;;
48835;SDS011;62581;47.342;7.908;2023-02-01T09:58:52;21.38;;;12.82;;
48835;SDS011;62581;47.342;7.908;2023-02-01T10:01:26;24.17;;;14.18;;
48835;SDS011;62581;47.342;7.908;2023-02-01T10:03:56;28.25;;;15.00;;
48835;SDS011;62581;47.342;7.908;2023-02-01T10:06:30;25.08;;;14.27;;
48835;SDS011;62581;47.342;7.908;2023-02-01T10:09:14;25.83;;;14.40;;
48835;SDS011;62581;47.342;7.908;2023-02-01T10:12:00;25.38;;;14.98;;
48835;SDS011;62581;47.342;7.908;2023-02-01T10:14:45;25.00;;;14.90;;
48835;SDS011;62581;47.342;7.908;2023-02-01T10:17:28;24.55;;;13.82;;
48835;SDS011;62581;47.342;7.908;2023-02-01T10:20:06;24.92;;;14.18;;
48835;SDS011;62581;47.342;7.908;2023-02-01T10:22:39;22.20;;;13.32;;
48835;SDS011;62581;47.342;7.908;2023-02-01T10:25:08;23.55;;;13.07;;
48835;SDS011;62581;47.342;7.908;2023-02-01T10:27:43;20.88;;;12.52;;
48835;SDS011;62581;47.342;7.908;2023-02-01T10:30:16;19.48;;;12.02;;
48835;SDS011;62581;47.342;7.908;2023-02-01T10:32:48;21.08;;;12.27;;
48835;SDS011;62581;47.342;7.908;2023-02-01T10:35:21;17.25;;;10.60;;
48835;SDS011;62581;47.342;7.908;2023-02-01T10:37:53;18.10;;;11.45;;
48835;SDS011;62581;47.342;7.908;2023-02-01T10:40:21;20.60;;;11.35;;
48835;SDS011;62581;47.342;7.908;2023-02-01T10:42:50;16.13;;;9.68;;
48835;SDS011;62581;47.342;7.908;2023-02-01T10:45:20;13.98;;;8.60;;
48835;SDS011;62581;47.342;7.908;2023-02-01T10:47:54;15.98;;;9.52;;
48835;SDS011;62581;47.342;7.908;2023-02-01T10:50:25;14.40;;;8.95;;
48835;SDS011;62581;47.342;7.908;2023-02-01T10:53:02;12.50;;;8.25;;
48835;SDS011;62581;47.342;7.908;2023-02-01T10:55:33;12.02;;;8.63;;
48835;SDS011;62581;47.342;7.908;2023-02-01T10:58:04;16.33;;;8.98;;
48835;SDS011;62581;47.342;7.908;2023-02-01T11:00:34;14.23;;;8.40;;
48835;SDS011;62581;47.342;7.908;2023-02-01T11:03:20;13.55;;;8.50;;
48835;SDS011;62581;47.342;7.908;2023-02-01T11:05:59;13.45;;;8.50;;
48835;SDS011;62581;47.342;7.908;2023-02-01T11:08:27;13.10;;;8.40;;
48835;SDS011;62581;47.342;7.908;2023-02-01T11:10:59;13.07;;;8.73;;
48835;SDS011;62581;47.342;7.908;2023-02-01T11:13:31;11.80;;;8.75;;
48835;SDS011;62581;47.342;7.908;2023-02-01T11:16:03;14.32;;;8.73;;
48835;SDS011;62581;47.342;7.908;2023-02-01T11:18:35;13.13;;;8.35;;
48835;SDS011;62581;47.342;7.908;2023-02-01T11:21:04;14.25;;;8.25;;
48835;SDS011;62581;47.342;7.908;2023-02-01T11:23:32;10.85;;;7.70;;
48835;SDS011;62581;47.342;7.908;2023-02-01T11:26:07;13.25;;;8.43;;
48835;SDS011;62581;47.342;7.908;2023-02-01T11:28:38;12.07;;;7.63;;
48835;SDS011;62581;47.342;7.908;2023-02-01T11:31:11;13.00;;;7.32;;
48835;SDS011;62581;47.342;7.908;2023-02-01T11:33:44;17.80;;;7.85;;
48835;SDS011;62581;47.342;7.908;2023-02-01T11:36:16;7.97;;;6.03;;
48835;SDS011;62581;47.342;7.908;2023-02-01T11:38:45;8.10;;;5.90;;
48835;SDS011;62581;47.342;7.908;2023-02-01T11:41:20;9.07;;;6.00;;
48835;SDS011;62581;47.342;7.908;2023-02-01T11:43:50;7.13;;;5.03;;
48835;SDS011;62581;47.342;7.908;2023-02-01T11:46:19;8.98;;;4.60;;
48835;SDS011;62581;47.342;7.908;2023-02-01T11:48:53;10.55;;;4.97;;
48835;SDS011;62581;47.342;7.908;2023-02-01T11:51:25;7.28;;;4.88;;
48835;SDS011;62581;47.342;7.908;2023-02-01T11:54:10;5.10;;;4.30;;
48835;SDS011;62581;47.342;7.908;2023-02-01T11:57:10;6.13;;;4.90;;
48835;SDS011;62581;47.342;7.908;2023-02-01T11:59:53;6.35;;;4.07;;
48835;SDS011;62581;47.342;7.908;2023-02-01T12:02:55;7.93;;;4.55;;
48835;SDS011;62581;47.342;7.908;2023-02-01T12:05:44;7.18;;;4.55;;
48835;SDS011;62581;47.342;7.908;2023-02-01T12:08:29;7.63;;;3.65;;
48835;SDS011;62581;47.342;7.908;2023-02-01T12:11:24;7.55;;;3.10;;
48835;SDS011;62581;47.342;7.908;2023-02-01T12:14:02;3.85;;;2.72;;
48835;SDS011;62581;47.342;7.908;2023-02-01T12:16:44;4.35;;;2.80;;
48835;SDS011;62581;47.342;7.908;2023-02-01T12:19:23;5.30;;;3.20;;
48835;SDS011;62581;47.342;7.908;2023-02-01T12:22:06;4.20;;;2.92;;
48835;SDS011;62581;47.342;7.908;2023-02-01T12:24:56;4.55;;;3.17;;
48835;SDS011;62581;47.342;7.908;2023-02-01T12:27:43;6.82;;;2.75;;
48835;SDS011;62581;47.342;7.908;2023-02-01T12:30:40;5.05;;;2.33;;
48835;SDS011;62581;47.342;7.908;2023-02-01T12:33:22;3.53;;;1.85;;
48835;SDS011;62581;47.342;7.908;2023-02-01T12:36:05;3.27;;;2.30;;
48835;SDS011;62581;47.342;7.908;2023-02-01T12:41:40;6.80;;;2.22;;
48835;SDS011;62581;47.342;7.908;2023-02-01T12:44:17;4.43;;;2.53;;
48835;SDS011;62581;47.342;7.908;2023-02-01T12:47:03;4.30;;;2.45;;
48835;SDS011;62581;47.342;7.908;2023-02-01T12:49:40;5.45;;;2.83;;
48835;SDS011;62581;47.342;7.908;2023-02-01T12:52:14;4.35;;;2.40;;
48835;SDS011;62581;47.342;7.908;2023-02-01T12:54:48;2.60;;;2.17;;
48835;SDS011;62581;47.342;7.908;2023-02-01T12:57:22;3.67;;;2.10;;
48835;SDS011;62581;47.342;7.908;2023-02-01T12:59:54;3.63;;;2.20;;
48835;SDS011;62581;47.342;7.908;2023-02-01T13:02:33;3.80;;;2.40;;
48835;SDS011;62581;47.342;7.908;2023-02-01T13:05:12;3.22;;;2.38;;
48835;SDS011;62581;47.342;7.908;2023-02-01T13:07:43;5.05;;;2.20;;
48835;SDS011;62581;47.342;7.908;2023-02-01T13:10:16;6.70;;;2.70;;
48835;SDS011;62581;47.342;7.908;2023-02-01T13:12:48;3.30;;;2.70;;
48835;SDS011;62581;47.342;7.908;2023-02-01T13:15:19;9.60;;;2.55;;
48835;SDS011;62581;47.342;7.908;2023-02-01T13:17:51;10.15;;;4.05;;
48835;SDS011;62581;47.342;7.908;2023-02-01T13:20:21;4.15;;;2.33;;
48835;SDS011;62581;47.342;7.908;2023-02-01T13:22:57;6.80;;;2.30;;
48835;SDS011;62581;47.342;7.908;2023-02-01T13:25:29;5.32;;;2.75;;
48835;SDS011;62581;47.342;7.908;2023-02-01T13:28:03;2.50;;;1.98;;
48835;SDS011;62581;47.342;7.908;2023-02-01T13:30:39;4.38;;;2.40;;
48835;SDS011;62581;47.342;7.908;2023-02-01T13:33:28;5.85;;;2.50;;
48835;SDS011;62581;47.342;7.908;2023-02-01T13:36:14;5.27;;;2.33;;
48835;SDS011;62581;47.342;7.908;2023-02-01T13:39:06;6.13;;;2.08;;
48835;SDS011;62581;47.342;7.908;2023-02-01T13:41:54;5.68;;;1.77;;
48835;SDS011;62581;47.342;7.908;2023-02-01T13:44:25;3.13;;;1.48;;
48835;SDS011;62581;47.342;7.908;2023-02-01T13:46:58;6.85;;;1.80;;
48835;SDS011;62581;47.342;7.908;2023-02-01T13:49:28;4.18;;;1.10;;
48835;SDS011;62581;47.342;7.908;2023-02-01T13:51:57;5.75;;;1.30;;
48835;SDS011;62581;47.342;7.908;2023-02-01T13:54:26;2.20;;;1.23;;
48835;SDS011;62581;47.342;7.908;2023-02-01T13:56:58;5.07;;;1.45;;
48835;SDS011;62581;47.342;7.908;2023-02-01T13:59:37;5.78;;;1.63;;
48835;SDS011;62581;47.342;7.908;2023-02-01T14:02:45;7.35;;;1.77;;
48835;SDS011;62581;47.342;7.908;2023-02-01T14:08:21;7.75;;;1.95;;
48835;SDS011;62581;47.342;7.908;2023-02-01T14:10:50;8.23;;;1.90;;
48835;SDS011;62581;47.342;7.908;2023-02-01T14:13:26;10.55;;;2.00;;
48835;SDS011;62581;47.342;7.908;2023-02-01T14:16:13;5.03;;;2.15;;
48835;SDS011;62581;47.342;7.908;2023-02-01T14:18:58;10.07;;;1.90;;
48835;SDS011;62581;47.342;7.908;2023-02-01T14:21:28;6.20;;;2.00;;
48835;SDS011;62581;47.342;7.908;2023-02-01T14:24:04;6.38;;;2.03;;
48835;SDS011;62581;47.342;7.908;2023-02-01T14:29:51;7.10;;;2.00;;
48835;SDS011;62581;47.342;7.908;2023-02-01T14:32:31;9.02;;;2.30;;
48835;SDS011;62581;47.342;7.908;2023-02-01T14:35:06;9.38;;;2.03;;
48835;SDS011;62581;47.342;7.908;2023-02-01T14:37:49;7.82;;;2.13;;
48835;SDS011;62581;47.342;7.908;2023-02-01T14:40:30;8.90;;;1.70;;
48835;SDS011;62581;47.342;7.908;2023-02-01T14:43:00;12.82;;;2.22;;
48835;SDS011;62581;47.342;7.908;2023-02-01T14:48:45;7.35;;;1.88;;
48835;SDS011;62581;47.342;7.908;2023-02-01T14:51:14;4.63;;;2.10;;
48835;SDS011;62581;47.342;7.908;2023-02-01T14:53:43;8.50;;;2.42;;
48835;SDS011;62581;47.342;7.908;2023-02-01T14:56:12;5.60;;;2.22;;
48835;SDS011;62581;47.342;7.908;2023-02-01T14:58:45;6.70;;;2.00;;
48835;SDS011;62581;47.342;7.908;2023-02-01T15:01:20;10.48;;;2.50;;
48835;SDS011;62581;47.342;7.908;2023-02-01T15:03:55;7.45;;;2.22;;
48835;SDS011;62581;47.342;7.908;2023-02-01T15:06:31;5.95;;;2.92;;
48835;SDS011;62581;47.342;7.908;2023-02-01T15:09:03;3.15;;;1.90;;
48835;SDS011;62581;47.342;7.908;2023-02-01T15:14:20;4.55;;;2.17;;
48835;SDS011;62581;47.342;7.908;2023-02-01T15:16:48;6.97;;;2.25;;
48835;SDS011;62581;47.342;7.908;2023-02-01T15:19:19;9.35;;;2.40;;
48835;SDS011;62581;47.342;7.908;2023-02-01T15:24:19;3.23;;;1.87;;